Share

Mentone, AL (35984)

Fischer (KALFORTP9) Elev 1552 ft | 34.48 °N, 85.61 °W | Change Station

Current weather conditions updated 36 seconds ago

Clear
Clear
67.6 °F
Feels Like 67.6 °F
N
3.0
Wind Variable Wind from South
Gusts 8.0 mph
Sunrise 6:04 AM
Sunset 7:18 PM
Moon Waning Gibbous

Today is forecast to be Warmer than yesterday.

Pressure 30.21 in
Visibility 10.0 miles
Clouds Clear
Dew Point 52 °F
Humidity 57%
Rainfall 0.00 in
Snow Depth Not available.
UV 10 out of 16
Pollen 8.90 out of 12
Air Quality Not available.
Flu Activity Sporadic
METAR K4A9 201635Z AUTO 05003KT 10SM CLR 21/05 A3021 RMK AO2

More Conditions Fewer Conditions

Pressure 30.21 in
Visibility 10.0 miles
Clouds Clear
Dew Point 52 °F
Humidity 57%
Rainfall 0.00 in
Snow Depth Not available.
UV 10 out of 16
Pollen 8.90 out of 12
Air Quality Not available.
Flu Activity Sporadic
METAR K4A9 201635Z AUTO 05003KT 10SM CLR 21/05 A3021 RMK AO2

More Conditions Fewer Conditions

10-Day Weather Forecast

Almanac

Astronomy

Apr. 20, 2014 Rise Set
Actual Time 6:04 AM CDT 7:18 PM CDT
Civil Twilight 5:38 AM CDT 7:44 PM CDT
Nautical Twilight 5:07 AM CDT 8:15 PM CDT
Astronomical Twilight 4:34 AM CDT 8:48 PM CDT
Moon No Moon Rise 10:29 AM CDT
Length of Visible Light 14h 06m
Length of Day
13h 13m
Tomorrow will be 2m 0s longer.
Waning Gibbous, 68% of the Moon is Illuminated
Today
Waning Gibbous
Apr 22
Last Quarter
Apr 29
New
May 6
First Quarter
May 14
Full

Today's Extremes

State Highs State Lows

Community

  • Columbine
    Columbine
  • Easter Sunrise
    Easter Sunrise
  • Easter Eve - The Promise - Lake Palestine, TX
    Easter Eve - The Promise - Lake Palestine, TX
  • Happy Easter
    Happy Easter
  • EARLY FOGGY MORNING
    EARLY FOGGY MORNING

WunderPhotos

Upload Photos

1,703,276 photos uploaded!

WunderBlogs® & News

Nearby

Snow Depth

Station Depth Elevation
No new snow has been reported.

Coastal Water Temperatures

Place Temperature
No Stations Reporting

Earthquake Activity

City Distance Mag. Time & Date
No recent earthquake activity has been reported nearby.
Minimum magnitude displayed is 2.5.

Nearby Weather Stations

Station Location Temp. Heat Index Dew Point Humidity Wind Precip. Elev Updated Type
Fischer, Fort Payne, AL 67.6 °F - 52 °F 57% South  at  3.0 mph 0.00 in / hr 1552 ft 11:51 AM CDT Normal
Desoto Country Club, Fort Payne, AL 73.8 °F 77 °F 47 °F 39% NNW  at  2.7 mph - / hr 978 ft 11:44 AM CDT Normal
Rock Creek Bloodhounds, Fort Payne, AL 70.5 °F 77 °F 50 °F 48% South  at  2.2 mph 0.00 in / hr 1162 ft 11:52 AM CDT Rapid Fire
RAWS ARMUCHEE GA, La Fayette, GA 65 °F - 48 °F 54% ESE  at  4 mph 0.00 in / hr 1151 ft 11:05 AM EDT MADIS
The Ridges, Cedar Bluff, AL 74.5 °F 75 °F 22 °F 14% SE  at  5.9 mph 0.00 in / hr 639 ft 11:49 AM CDT Normal

Show More Stations Show Fewer Stations

What do you think?

We're not finished. Please let us know what you like, what you don't like, and what you are still missing.